sensor_id;sensor_type;location;lat;lon;timestamp;temperature;humidity
16635;DHT22;8431;52.458;9.998;2023-07-31T00:00:17;14.90;99.90
16635;DHT22;8431;52.458;9.998;2023-07-31T00:02:44;14.90;99.90
16635;DHT22;8431;52.458;9.998;2023-07-31T00:05:11;14.90;99.90
16635;DHT22;8431;52.458;9.998;2023-07-31T00:07:51;14.80;99.90
16635;DHT22;8431;52.458;9.998;2023-07-31T00:10:19;14.90;99.90
16635;DHT22;8431;52.458;9.998;2023-07-31T00:12:49;14.80;99.90
16635;DHT22;8431;52.458;9.998;2023-07-31T00:15:16;14.90;99.90
16635;DHT22;8431;52.458;9.998;2023-07-31T00:17:43;14.80;99.90
16635;DHT22;8431;52.458;9.998;2023-07-31T00:20:14;14.80;99.90
16635;DHT22;8431;52.458;9.998;2023-07-31T00:22:41;14.90;99.90
16635;DHT22;8431;52.458;9.998;2023-07-31T00:25:11;14.90;99.90
16635;DHT22;8431;52.458;9.998;2023-07-31T00:27:38;14.90;99.90
16635;DHT22;8431;52.458;9.998;2023-07-31T00:30:16;14.90;99.90
16635;DHT22;8431;52.458;9.998;2023-07-31T00:32:43;14.90;99.90
16635;DHT22;8431;52.458;9.998;2023-07-31T00:35:10;14.90;99.90
16635;DHT22;8431;52.458;9.998;2023-07-31T00:37:46;14.90;99.90
16635;DHT22;8431;52.458;9.998;2023-07-31T00:40:14;14.90;99.90
16635;DHT22;8431;52.458;9.998;2023-07-31T00:42:45;14.90;99.90
16635;DHT22;8431;52.458;9.998;2023-07-31T00:45:12;14.90;99.90
16635;DHT22;8431;52.458;9.998;2023-07-31T00:47:39;14.90;99.90
16635;DHT22;8431;52.458;9.998;2023-07-31T00:50:09;15.00;99.90
16635;DHT22;8431;52.458;9.998;2023-07-31T00:52:36;15.00;99.90
16635;DHT22;8431;52.458;9.998;2023-07-31T00:55:04;15.00;99.90
16635;DHT22;8431;52.458;9.998;2023-07-31T00:57:36;15.00;99.90
16635;DHT22;8431;52.458;9.998;2023-07-31T01:00:05;15.00;99.90
16635;DHT22;8431;52.458;9.998;2023-07-31T01:02:37;15.00;99.90
16635;DHT22;8431;52.458;9.998;2023-07-31T01:05:07;15.00;99.90
16635;DHT22;8431;52.458;9.998;2023-07-31T01:07:41;15.00;99.90
16635;DHT22;8431;52.458;9.998;2023-07-31T01:10:18;15.00;99.90
16635;DHT22;8431;52.458;9.998;2023-07-31T01:12:48;14.90;99.90
16635;DHT22;8431;52.458;9.998;2023-07-31T01:15:15;15.00;99.90
16635;DHT22;8431;52.458;9.998;2023-07-31T01:17:43;15.00;99.90
16635;DHT22;8431;52.458;9.998;2023-07-31T01:20:16;15.00;99.90
16635;DHT22;8431;52.458;9.998;2023-07-31T01:23:08;15.00;99.90
16635;DHT22;8431;52.458;9.998;2023-07-31T01:25:59;15.00;99.90
16635;DHT22;8431;52.458;9.998;2023-07-31T01:28:33;15.00;99.90
16635;DHT22;8431;52.458;9.998;2023-07-31T01:31:06;15.00;99.90
16635;DHT22;8431;52.458;9.998;2023-07-31T01:33:35;15.00;99.90
16635;DHT22;8431;52.458;9.998;2023-07-31T01:36:04;15.00;99.90
16635;DHT22;8431;52.458;9.998;2023-07-31T01:38:31;15.00;99.90
16635;DHT22;8431;52.458;9.998;2023-07-31T01:40:59;15.00;99.90
16635;DHT22;8431;52.458;9.998;2023-07-31T01:43:26;14.90;99.90
16635;DHT22;8431;52.458;9.998;2023-07-31T01:45:53;14.90;99.90
16635;DHT22;8431;52.458;9.998;2023-07-31T01:48:20;14.90;99.90
16635;DHT22;8431;52.458;9.998;2023-07-31T01:50:47;14.90;99.90
16635;DHT22;8431;52.458;9.998;2023-07-31T01:53:14;15.00;99.90
16635;DHT22;8431;52.458;9.998;2023-07-31T01:55:41;15.00;99.90
16635;DHT22;8431;52.458;9.998;2023-07-31T01:58:10;15.00;99.90
16635;DHT22;8431;52.458;9.998;2023-07-31T02:00:37;14.90;99.90
16635;DHT22;8431;52.458;9.998;2023-07-31T02:03:03;14.90;99.90
16635;DHT22;8431;52.458;9.998;2023-07-31T02:05:30;14.90;99.90
16635;DHT22;8431;52.458;9.998;2023-07-31T02:07:57;14.90;99.90
16635;DHT22;8431;52.458;9.998;2023-07-31T02:10:24;14.90;99.90
16635;DHT22;8431;52.458;9.998;2023-07-31T02:12:51;14.90;99.90
16635;DHT22;8431;52.458;9.998;2023-07-31T02:15:20;14.90;99.90
16635;DHT22;8431;52.458;9.998;2023-07-31T02:17:47;14.90;99.90
16635;DHT22;8431;52.458;9.998;2023-07-31T02:20:14;14.90;99.90
16635;DHT22;8431;52.458;9.998;2023-07-31T02:22:41;14.90;99.90
16635;DHT22;8431;52.458;9.998;2023-07-31T02:25:08;14.90;99.90
16635;DHT22;8431;52.458;9.998;2023-07-31T02:27:35;14.90;99.90
16635;DHT22;8431;52.458;9.998;2023-07-31T02:30:02;14.90;99.90
16635;DHT22;8431;52.458;9.998;2023-07-31T02:32:31;14.90;99.90
16635;DHT22;8431;52.458;9.998;2023-07-31T02:34:57;14.90;99.90
16635;DHT22;8431;52.458;9.998;2023-07-31T02:37:25;14.90;99.90
16635;DHT22;8431;52.458;9.998;2023-07-31T02:39:57;14.90;99.90
16635;DHT22;8431;52.458;9.998;2023-07-31T02:42:24;14.90;99.90
16635;DHT22;8431;52.458;9.998;2023-07-31T02:44:51;14.90;99.90
16635;DHT22;8431;52.458;9.998;2023-07-31T02:47:21;14.90;99.90
16635;DHT22;8431;52.458;9.998;2023-07-31T02:49:49;14.90;99.90
16635;DHT22;8431;52.458;9.998;2023-07-31T02:52:16;14.90;99.90
16635;DHT22;8431;52.458;9.998;2023-07-31T02:54:43;14.90;99.90
16635;DHT22;8431;52.458;9.998;2023-07-31T02:57:10;14.90;99.90
16635;DHT22;8431;52.458;9.998;2023-07-31T02:59:37;14.90;99.90
16635;DHT22;8431;52.458;9.998;2023-07-31T03:02:04;15.00;99.90
16635;DHT22;8431;52.458;9.998;2023-07-31T03:04:31;14.90;99.90
16635;DHT22;8431;52.458;9.998;2023-07-31T03:07:00;14.90;99.90
16635;DHT22;8431;52.458;9.998;2023-07-31T03:09:27;15.00;99.90
16635;DHT22;8431;52.458;9.998;2023-07-31T03:11:54;15.00;99.90
16635;DHT22;8431;52.458;9.998;2023-07-31T03:14:20;14.90;99.90
16635;DHT22;8431;52.458;9.998;2023-07-31T03:16:48;14.90;99.90
16635;DHT22;8431;52.458;9.998;2023-07-31T03:19:15;14.90;99.90
16635;DHT22;8431;52.458;9.998;2023-07-31T03:21:41;14.90;99.90
16635;DHT22;8431;52.458;9.998;2023-07-31T03:24:10;15.00;99.90
16635;DHT22;8431;52.458;9.998;2023-07-31T03:26:40;14.90;99.90
16635;DHT22;8431;52.458;9.998;2023-07-31T03:29:08;14.90;99.90
16635;DHT22;8431;52.458;9.998;2023-07-31T03:31:35;14.90;99.90
16635;DHT22;8431;52.458;9.998;2023-07-31T03:34:01;14.90;99.90
16635;DHT22;8431;52.458;9.998;2023-07-31T03:36:28;14.90;99.90
16635;DHT22;8431;52.458;9.998;2023-07-31T03:38:55;15.00;99.90
16635;DHT22;8431;52.458;9.998;2023-07-31T03:41:24;14.90;99.90
16635;DHT22;8431;52.458;9.998;2023-07-31T03:43:51;14.90;99.90
16635;DHT22;8431;52.458;9.998;2023-07-31T03:46:18;15.00;99.90
16635;DHT22;8431;52.458;9.998;2023-07-31T03:48:45;14.90;99.90
16635;DHT22;8431;52.458;9.998;2023-07-31T03:51:12;14.90;99.90
16635;DHT22;8431;52.458;9.998;2023-07-31T03:53:39;15.00;99.90
16635;DHT22;8431;52.458;9.998;2023-07-31T03:56:06;15.00;99.90
16635;DHT22;8431;52.458;9.998;2023-07-31T03:58:34;15.00;99.90
16635;DHT22;8431;52.458;9.998;2023-07-31T04:01:02;15.00;99.90
16635;DHT22;8431;52.458;9.998;2023-07-31T04:03:29;15.00;99.90
16635;DHT22;8431;52.458;9.998;2023-07-31T04:05:56;15.00;99.90
16635;DHT22;8431;52.458;9.998;2023-07-31T04:08:23;15.00;99.90
16635;DHT22;8431;52.458;9.998;2023-07-31T04:11:00;15.00;99.90
16635;DHT22;8431;52.458;9.998;2023-07-31T04:13:27;15.00;99.90
16635;DHT22;8431;52.458;9.998;2023-07-31T04:15:57;15.10;99.90
16635;DHT22;8431;52.458;9.998;2023-07-31T04:18:24;15.10;99.90
16635;DHT22;8431;52.458;9.998;2023-07-31T04:20:51;15.10;99.90
16635;DHT22;8431;52.458;9.998;2023-07-31T04:23:18;15.10;99.90
16635;DHT22;8431;52.458;9.998;2023-07-31T04:25:45;15.20;99.90
16635;DHT22;8431;52.458;9.998;2023-07-31T04:28:12;15.20;99.90
16635;DHT22;8431;52.458;9.998;2023-07-31T04:30:39;15.30;99.90
16635;DHT22;8431;52.458;9.998;2023-07-31T04:33:08;15.30;99.90
16635;DHT22;8431;52.458;9.998;2023-07-31T04:35:35;15.30;99.90
16635;DHT22;8431;52.458;9.998;2023-07-31T04:38:02;15.30;99.90
16635;DHT22;8431;52.458;9.998;2023-07-31T04:40:29;15.30;99.90
16635;DHT22;8431;52.458;9.998;2023-07-31T04:42:56;15.30;99.90
16635;DHT22;8431;52.458;9.998;2023-07-31T04:45:23;15.30;99.90
16635;DHT22;8431;52.458;9.998;2023-07-31T04:47:50;15.20;99.90
16635;DHT22;8431;52.458;9.998;2023-07-31T04:50:18;15.30;99.90
16635;DHT22;8431;52.458;9.998;2023-07-31T04:52:45;15.30;99.90
16635;DHT22;8431;52.458;9.998;2023-07-31T04:55:15;15.30;99.90
16635;DHT22;8431;52.458;9.998;2023-07-31T04:57:42;15.30;99.90
16635;DHT22;8431;52.458;9.998;2023-07-31T05:00:10;15.30;99.90
16635;DHT22;8431;52.458;9.998;2023-07-31T05:02:37;15.30;99.90
16635;DHT22;8431;52.458;9.998;2023-07-31T05:05:04;15.30;99.90
16635;DHT22;8431;52.458;9.998;2023-07-31T05:07:32;15.30;99.90
16635;DHT22;8431;52.458;9.998;2023-07-31T05:09:59;15.20;99.90
16635;DHT22;8431;52.458;9.998;2023-07-31T05:12:26;15.20;99.90
16635;DHT22;8431;52.458;9.998;2023-07-31T05:14:53;15.30;99.90
16635;DHT22;8431;52.458;9.998;2023-07-31T05:17:20;15.30;99.90
16635;DHT22;8431;52.458;9.998;2023-07-31T05:19:47;15.20;99.90
16635;DHT22;8431;52.458;9.998;2023-07-31T05:22:14;15.30;99.90
16635;DHT22;8431;52.458;9.998;2023-07-31T05:24:42;15.30;99.90
16635;DHT22;8431;52.458;9.998;2023-07-31T05:27:09;15.20;99.90
16635;DHT22;8431;52.458;9.998;2023-07-31T05:29:36;15.20;99.90
16635;DHT22;8431;52.458;9.998;2023-07-31T05:32:04;15.20;99.90
16635;DHT22;8431;52.458;9.998;2023-07-31T05:34:31;15.20;99.90
16635;DHT22;8431;52.458;9.998;2023-07-31T05:36:58;15.20;99.90
16635;DHT22;8431;52.458;9.998;2023-07-31T05:39:25;15.10;99.90
16635;DHT22;8431;52.458;9.998;2023-07-31T05:41:53;15.20;99.90
16635;DHT22;8431;52.458;9.998;2023-07-31T05:44:20;15.10;99.90
16635;DHT22;8431;52.458;9.998;2023-07-31T05:46:47;15.20;99.90
16635;DHT22;8431;52.458;9.998;2023-07-31T05:49:14;15.10;99.90
16635;DHT22;8431;52.458;9.998;2023-07-31T05:51:41;15.20;99.90
16635;DHT22;8431;52.458;9.998;2023-07-31T05:54:08;15.20;99.90
16635;DHT22;8431;52.458;9.998;2023-07-31T05:56:34;15.20;99.90
16635;DHT22;8431;52.458;9.998;2023-07-31T05:59:03;15.30;99.90
16635;DHT22;8431;52.458;9.998;2023-07-31T06:01:30;15.20;99.90
16635;DHT22;8431;52.458;9.998;2023-07-31T06:03:57;15.40;99.90
16635;DHT22;8431;52.458;9.998;2023-07-31T06:06:24;15.40;99.90
16635;DHT22;8431;52.458;9.998;2023-07-31T06:08:51;15.40;99.90
16635;DHT22;8431;52.458;9.998;2023-07-31T06:11:19;15.40;99.90
16635;DHT22;8431;52.458;9.998;2023-07-31T06:13:46;15.50;99.90
16635;DHT22;8431;52.458;9.998;2023-07-31T06:16:16;15.40;99.90
16635;DHT22;8431;52.458;9.998;2023-07-31T06:18:43;15.40;99.90
16635;DHT22;8431;52.458;9.998;2023-07-31T06:21:10;15.40;99.90
16635;DHT22;8431;52.458;9.998;2023-07-31T06:23:37;15.50;99.90
16635;DHT22;8431;52.458;9.998;2023-07-31T06:26:04;15.50;99.90
16635;DHT22;8431;52.458;9.998;2023-07-31T06:28:32;15.70;99.90
16635;DHT22;8431;52.458;9.998;2023-07-31T06:30:59;15.70;99.90
16635;DHT22;8431;52.458;9.998;2023-07-31T06:33:28;15.80;99.90
16635;DHT22;8431;52.458;9.998;2023-07-31T06:35:55;15.70;99.90
16635;DHT22;8431;52.458;9.998;2023-07-31T06:38:24;15.70;99.90
16635;DHT22;8431;52.458;9.998;2023-07-31T06:40:51;15.70;99.90
16635;DHT22;8431;52.458;9.998;2023-07-31T06:43:18;15.70;99.90
16635;DHT22;8431;52.458;9.998;2023-07-31T06:45:45;15.70;99.90
16635;DHT22;8431;52.458;9.998;2023-07-31T06:48:14;15.70;99.90
16635;DHT22;8431;52.458;9.998;2023-07-31T06:50:42;15.70;99.90
16635;DHT22;8431;52.458;9.998;2023-07-31T06:53:09;15.70;99.90
16635;DHT22;8431;52.458;9.998;2023-07-31T06:55:36;15.70;99.90
16635;DHT22;8431;52.458;9.998;2023-07-31T06:58:03;15.70;99.90
16635;DHT22;8431;52.458;9.998;2023-07-31T07:00:30;15.70;99.90
16635;DHT22;8431;52.458;9.998;2023-07-31T07:02:57;15.70;99.90
16635;DHT22;8431;52.458;9.998;2023-07-31T07:05:24;15.70;99.90
16635;DHT22;8431;52.458;9.998;2023-07-31T07:07:53;15.70;99.90
16635;DHT22;8431;52.458;9.998;2023-07-31T07:10:20;15.70;99.90
16635;DHT22;8431;52.458;9.998;2023-07-31T07:12:47;15.70;99.90
16635;DHT22;8431;52.458;9.998;2023-07-31T07:15:14;15.70;99.90
16635;DHT22;8431;52.458;9.998;2023-07-31T07:17:42;15.70;99.90
16635;DHT22;8431;52.458;9.998;2023-07-31T07:20:09;15.70;99.90
16635;DHT22;8431;52.458;9.998;2023-07-31T07:22:40;15.70;99.90
16635;DHT22;8431;52.458;9.998;2023-07-31T07:25:20;15.70;99.90
16635;DHT22;8431;52.458;9.998;2023-07-31T07:27:47;15.70;99.90
16635;DHT22;8431;52.458;9.998;2023-07-31T07:30:14;15.70;99.90
16635;DHT22;8431;52.458;9.998;2023-07-31T07:32:41;15.70;99.90
16635;DHT22;8431;52.458;9.998;2023-07-31T07:35:08;15.70;99.90
16635;DHT22;8431;52.458;9.998;2023-07-31T07:37:35;15.80;99.90
16635;DHT22;8431;52.458;9.998;2023-07-31T07:40:02;15.80;99.90
16635;DHT22;8431;52.458;9.998;2023-07-31T07:42:30;15.80;99.90
16635;DHT22;8431;52.458;9.998;2023-07-31T07:44:57;16.00;99.90
16635;DHT22;8431;52.458;9.998;2023-07-31T07:47:24;16.20;99.90
16635;DHT22;8431;52.458;9.998;2023-07-31T07:49:51;16.70;99.90
16635;DHT22;8431;52.458;9.998;2023-07-31T07:52:21;16.60;99.90
16635;DHT22;8431;52.458;9.998;2023-07-31T07:54:48;16.50;99.90
16635;DHT22;8431;52.458;9.998;2023-07-31T07:57:15;16.60;99.90
16635;DHT22;8431;52.458;9.998;2023-07-31T07:59:44;16.50;99.90
16635;DHT22;8431;52.458;9.998;2023-07-31T08:02:11;16.50;99.90
16635;DHT22;8431;52.458;9.998;2023-07-31T08:04:37;16.50;99.90
16635;DHT22;8431;52.458;9.998;2023-07-31T08:07:05;16.70;99.90
16635;DHT22;8431;52.458;9.998;2023-07-31T08:09:32;16.70;99.90
16635;DHT22;8431;52.458;9.998;2023-07-31T08:11:58;16.60;99.90
16635;DHT22;8431;52.458;9.998;2023-07-31T08:14:28;16.80;99.90
16635;DHT22;8431;52.458;9.998;2023-07-31T08:16:57;16.80;99.90
16635;DHT22;8431;52.458;9.998;2023-07-31T08:19:23;17.00;99.90
16635;DHT22;8431;52.458;9.998;2023-07-31T08:21:50;17.00;99.90
16635;DHT22;8431;52.458;9.998;2023-07-31T08:24:17;16.80;99.90
16635;DHT22;8431;52.458;9.998;2023-07-31T08:26:44;16.70;99.90
16635;DHT22;8431;52.458;9.998;2023-07-31T08:29:11;16.70;99.90
16635;DHT22;8431;52.458;9.998;2023-07-31T08:31:38;16.80;99.90
16635;DHT22;8431;52.458;9.998;2023-07-31T08:34:06;16.50;99.90
16635;DHT22;8431;52.458;9.998;2023-07-31T08:36:33;16.60;99.90
16635;DHT22;8431;52.458;9.998;2023-07-31T08:39:00;16.60;99.90
16635;DHT22;8431;52.458;9.998;2023-07-31T08:41:27;16.70;99.90
16635;DHT22;8431;52.458;9.998;2023-07-31T08:43:55;16.60;99.90
16635;DHT22;8431;52.458;9.998;2023-07-31T08:46:23;16.40;99.90
16635;DHT22;8431;52.458;9.998;2023-07-31T08:48:51;16.50;99.90
16635;DHT22;8431;52.458;9.998;2023-07-31T08:51:24;16.70;99.90
16635;DHT22;8431;52.458;9.998;2023-07-31T08:53:50;16.80;99.90
16635;DHT22;8431;52.458;9.998;2023-07-31T08:56:19;16.80;99.90
16635;DHT22;8431;52.458;9.998;2023-07-31T08:58:46;16.90;99.90
16635;DHT22;8431;52.458;9.998;2023-07-31T09:01:14;16.90;99.90
16635;DHT22;8431;52.458;9.998;2023-07-31T09:03:42;17.00;99.90
16635;DHT22;8431;52.458;9.998;2023-07-31T09:06:10;17.30;99.90
16635;DHT22;8431;52.458;9.998;2023-07-31T09:08:42;17.30;99.90
16635;DHT22;8431;52.458;9.998;2023-07-31T09:11:09;17.30;99.90
16635;DHT22;8431;52.458;9.998;2023-07-31T09:13:37;17.20;99.90
16635;DHT22;8431;52.458;9.998;2023-07-31T09:16:08;16.90;99.90
16635;DHT22;8431;52.458;9.998;2023-07-31T09:18:53;16.70;99.90
16635;DHT22;8431;52.458;9.998;2023-07-31T09:21:20;16.60;99.90
16635;DHT22;8431;52.458;9.998;2023-07-31T09:23:48;16.60;99.90
16635;DHT22;8431;52.458;9.998;2023-07-31T09:26:30;16.60;99.90
16635;DHT22;8431;52.458;9.998;2023-07-31T09:28:57;16.50;99.90
16635;DHT22;8431;52.458;9.998;2023-07-31T09:31:32;16.60;99.90
16635;DHT22;8431;52.458;9.998;2023-07-31T09:33:59;16.90;99.90
16635;DHT22;8431;52.458;9.998;2023-07-31T09:36:29;17.20;99.90
16635;DHT22;8431;52.458;9.998;2023-07-31T09:41:55;17.80;99.90
16635;DHT22;8431;52.458;9.998;2023-07-31T09:44:37;17.60;99.90
16635;DHT22;8431;52.458;9.998;2023-07-31T09:47:27;17.70;99.90
16635;DHT22;8431;52.458;9.998;2023-07-31T09:49:56;17.40;99.90
16635;DHT22;8431;52.458;9.998;2023-07-31T09:52:26;17.20;99.90
16635;DHT22;8431;52.458;9.998;2023-07-31T09:54:53;17.40;99.90
16635;DHT22;8431;52.458;9.998;2023-07-31T09:57:22;17.30;99.90
16635;DHT22;8431;52.458;9.998;2023-07-31T10:00:15;17.20;99.90
16635;DHT22;8431;52.458;9.998;2023-07-31T10:06:14;16.90;99.90
16635;DHT22;8431;52.458;9.998;2023-07-31T10:12:53;16.70;99.90
16635;DHT22;8431;52.458;9.998;2023-07-31T10:16:08;16.70;99.90
16635;DHT22;8431;52.458;9.998;2023-07-31T10:19:05;16.90;99.90
16635;DHT22;8431;52.458;9.998;2023-07-31T10:22:23;17.00;99.90
16635;DHT22;8431;52.458;9.998;2023-07-31T10:25:32;17.10;99.90
16635;DHT22;8431;52.458;9.998;2023-07-31T10:31:40;17.30;99.90
16635;DHT22;8431;52.458;9.998;2023-07-31T10:34:51;17.40;99.90
16635;DHT22;8431;52.458;9.998;2023-07-31T10:37:26;17.70;99.90
16635;DHT22;8431;52.458;9.998;2023-07-31T10:40:12;17.60;99.90
16635;DHT22;8431;52.458;9.998;2023-07-31T10:42:46;17.90;99.90
16635;DHT22;8431;52.458;9.998;2023-07-31T10:45:24;17.80;99.90
16635;DHT22;8431;52.458;9.998;2023-07-31T10:48:06;17.90;99.90
16635;DHT22;8431;52.458;9.998;2023-07-31T10:50:38;17.90;99.90
16635;DHT22;8431;52.458;9.998;2023-07-31T10:53:05;17.90;99.90
16635;DHT22;8431;52.458;9.998;2023-07-31T10:55:35;17.80;99.90
16635;DHT22;8431;52.458;9.998;2023-07-31T10:58:07;17.80;99.90
16635;DHT22;8431;52.458;9.998;2023-07-31T11:00:41;17.60;99.90
16635;DHT22;8431;52.458;9.998;2023-07-31T11:03:09;17.70;99.90
16635;DHT22;8431;52.458;9.998;2023-07-31T11:05:51;17.80;99.90
16635;DHT22;8431;52.458;9.998;2023-07-31T11:08:21;17.90;99.90
16635;DHT22;8431;52.458;9.998;2023-07-31T11:10:51;17.90;99.90
16635;DHT22;8431;52.458;9.998;2023-07-31T11:13:32;17.80;99.90
16635;DHT22;8431;52.458;9.998;2023-07-31T11:16:02;17.80;99.90
16635;DHT22;8431;52.458;9.998;2023-07-31T11:18:29;17.80;99.90
16635;DHT22;8431;52.458;9.998;2023-07-31T11:20:56;17.90;99.90
16635;DHT22;8431;52.458;9.998;2023-07-31T11:23:24;17.70;99.90
16635;DHT22;8431;52.458;9.998;2023-07-31T11:25:51;17.60;99.90
16635;DHT22;8431;52.458;9.998;2023-07-31T11:28:19;17.70;99.90
16635;DHT22;8431;52.458;9.998;2023-07-31T11:30:47;17.70;99.90
16635;DHT22;8431;52.458;9.998;2023-07-31T11:33:15;17.70;99.90
16635;DHT22;8431;52.458;9.998;2023-07-31T11:35:44;18.00;99.90
16635;DHT22;8431;52.458;9.998;2023-07-31T11:38:11;18.10;99.90
16635;DHT22;8431;52.458;9.998;2023-07-31T11:40:41;18.00;99.90
16635;DHT22;8431;52.458;9.998;2023-07-31T11:43:09;18.20;99.90
16635;DHT22;8431;52.458;9.998;2023-07-31T11:45:37;18.30;99.90
16635;DHT22;8431;52.458;9.998;2023-07-31T11:48:07;18.20;99.90
16635;DHT22;8431;52.458;9.998;2023-07-31T11:50:35;18.20;99.90
16635;DHT22;8431;52.458;9.998;2023-07-31T11:53:06;18.10;99.90
16635;DHT22;8431;52.458;9.998;2023-07-31T11:55:35;18.20;99.90
16635;DHT22;8431;52.458;9.998;2023-07-31T11:58:02;18.20;99.90
16635;DHT22;8431;52.458;9.998;2023-07-31T12:00:29;18.00;99.90
16635;DHT22;8431;52.458;9.998;2023-07-31T12:02:56;18.00;99.90
16635;DHT22;8431;52.458;9.998;2023-07-31T12:05:24;18.10;99.90
16635;DHT22;8431;52.458;9.998;2023-07-31T12:07:53;18.10;99.90
16635;DHT22;8431;52.458;9.998;2023-07-31T12:10:25;18.20;99.90
16635;DHT22;8431;52.458;9.998;2023-07-31T12:13:03;18.10;99.90
16635;DHT22;8431;52.458;9.998;2023-07-31T12:15:35;18.00;99.90
16635;DHT22;8431;52.458;9.998;2023-07-31T12:18:04;17.80;99.90
16635;DHT22;8431;52.458;9.998;2023-07-31T12:20:32;17.70;99.90
16635;DHT22;8431;52.458;9.998;2023-07-31T12:23:01;17.70;99.90
16635;DHT22;8431;52.458;9.998;2023-07-31T12:25:32;17.70;99.90
16635;DHT22;8431;52.458;9.998;2023-07-31T12:28:04;17.80;99.90
16635;DHT22;8431;52.458;9.998;2023-07-31T12:30:33;17.60;99.90
16635;DHT22;8431;52.458;9.998;2023-07-31T12:33:04;17.90;99.90
16635;DHT22;8431;52.458;9.998;2023-07-31T12:35:40;17.90;99.90
16635;DHT22;8431;52.458;9.998;2023-07-31T12:38:08;18.00;99.90
16635;DHT22;8431;52.458;9.998;2023-07-31T12:40:37;18.20;99.90
16635;DHT22;8431;52.458;9.998;2023-07-31T12:43:04;18.20;99.90
16635;DHT22;8431;52.458;9.998;2023-07-31T12:45:31;18.30;99.90
16635;DHT22;8431;52.458;9.998;2023-07-31T12:47:58;18.20;99.90
16635;DHT22;8431;52.458;9.998;2023-07-31T12:50:25;18.00;99.90
16635;DHT22;8431;52.458;9.998;2023-07-31T12:52:53;18.00;99.90
16635;DHT22;8431;52.458;9.998;2023-07-31T12:55:22;18.10;99.90
16635;DHT22;8431;52.458;9.998;2023-07-31T12:57:49;18.20;99.90
16635;DHT22;8431;52.458;9.998;2023-07-31T13:00:16;18.30;99.90
16635;DHT22;8431;52.458;9.998;2023-07-31T13:02:43;18.40;99.90
16635;DHT22;8431;52.458;9.998;2023-07-31T13:05:10;18.20;99.90
16635;DHT22;8431;52.458;9.998;2023-07-31T13:07:38;18.40;99.90
16635;DHT22;8431;52.458;9.998;2023-07-31T13:10:06;18.40;99.90
16635;DHT22;8431;52.458;9.998;2023-07-31T13:12:35;18.10;99.90
16635;DHT22;8431;52.458;9.998;2023-07-31T13:15:02;18.10;99.90
16635;DHT22;8431;52.458;9.998;2023-07-31T13:17:29;18.10;99.90
16635;DHT22;8431;52.458;9.998;2023-07-31T13:19:56;18.00;99.90
16635;DHT22;8431;52.458;9.998;2023-07-31T13:22:23;18.00;99.90
16635;DHT22;8431;52.458;9.998;2023-07-31T13:24:50;18.10;99.90
16635;DHT22;8431;52.458;9.998;2023-07-31T13:27:17;18.30;99.90
16635;DHT22;8431;52.458;9.998;2023-07-31T13:29:48;18.20;99.90
16635;DHT22;8431;52.458;9.998;2023-07-31T13:32:16;18.20;99.90
16635;DHT22;8431;52.458;9.998;2023-07-31T13:34:43;18.30;99.90
16635;DHT22;8431;52.458;9.998;2023-07-31T13:37:10;18.20;99.90
16635;DHT22;8431;52.458;9.998;2023-07-31T13:39:37;18.30;99.90
16635;DHT22;8431;52.458;9.998;2023-07-31T13:42:04;18.30;99.90
16635;DHT22;8431;52.458;9.998;2023-07-31T13:44:32;18.20;99.90
16635;DHT22;8431;52.458;9.998;2023-07-31T13:47:01;18.10;99.90
16635;DHT22;8431;52.458;9.998;2023-07-31T13:49:28;18.20;99.90
16635;DHT22;8431;52.458;9.998;2023-07-31T13:51:55;18.30;99.90
16635;DHT22;8431;52.458;9.998;2023-07-31T13:54:22;18.20;99.90
16635;DHT22;8431;52.458;9.998;2023-07-31T13:56:49;18.20;99.90
16635;DHT22;8431;52.458;9.998;2023-07-31T13:59:16;18.20;99.90
16635;DHT22;8431;52.458;9.998;2023-07-31T14:01:44;18.40;99.90
16635;DHT22;8431;52.458;9.998;2023-07-31T14:04:12;18.50;99.90
16635;DHT22;8431;52.458;9.998;2023-07-31T14:06:40;18.50;99.90
16635;DHT22;8431;52.458;9.998;2023-07-31T14:09:07;18.40;99.90
16635;DHT22;8431;52.458;9.998;2023-07-31T14:11:34;18.40;99.90
16635;DHT22;8431;52.458;9.998;2023-07-31T14:14:01;18.40;99.90
16635;DHT22;8431;52.458;9.998;2023-07-31T14:16:29;18.50;99.90
16635;DHT22;8431;52.458;9.998;2023-07-31T14:18:55;18.50;99.90
16635;DHT22;8431;52.458;9.998;2023-07-31T14:21:26;18.70;99.90
16635;DHT22;8431;52.458;9.998;2023-07-31T14:23:53;18.60;99.90
16635;DHT22;8431;52.458;9.998;2023-07-31T14:26:20;18.70;99.90
16635;DHT22;8431;52.458;9.998;2023-07-31T14:28:47;18.60;99.90
16635;DHT22;8431;52.458;9.998;2023-07-31T14:31:14;18.70;99.90
16635;DHT22;8431;52.458;9.998;2023-07-31T14:33:41;18.60;99.90
16635;DHT22;8431;52.458;9.998;2023-07-31T14:36:11;18.70;99.90
16635;DHT22;8431;52.458;9.998;2023-07-31T14:38:39;18.80;99.90
16635;DHT22;8431;52.458;9.998;2023-07-31T14:41:06;18.90;99.90
16635;DHT22;8431;52.458;9.998;2023-07-31T14:43:33;18.90;99.90
16635;DHT22;8431;52.458;9.998;2023-07-31T14:46:00;18.80;99.90
16635;DHT22;8431;52.458;9.998;2023-07-31T14:48:27;18.80;99.90
16635;DHT22;8431;52.458;9.998;2023-07-31T14:50:54;18.60;99.90
16635;DHT22;8431;52.458;9.998;2023-07-31T14:53:21;18.60;99.90
16635;DHT22;8431;52.458;9.998;2023-07-31T14:55:50;18.60;99.90
16635;DHT22;8431;52.458;9.998;2023-07-31T14:58:17;18.60;99.90
16635;DHT22;8431;52.458;9.998;2023-07-31T15:00:44;18.50;99.90
16635;DHT22;8431;52.458;9.998;2023-07-31T15:03:11;18.40;99.90
16635;DHT22;8431;52.458;9.998;2023-07-31T15:05:38;18.40;99.90
16635;DHT22;8431;52.458;9.998;2023-07-31T15:08:05;18.20;99.90
16635;DHT22;8431;52.458;9.998;2023-07-31T15:10:32;18.30;99.90
16635;DHT22;8431;52.458;9.998;2023-07-31T15:13:00;18.20;99.90
16635;DHT22;8431;52.458;9.998;2023-07-31T15:15:28;18.10;99.90
16635;DHT22;8431;52.458;9.998;2023-07-31T15:17:55;18.20;99.90
16635;DHT22;8431;52.458;9.998;2023-07-31T15:20:22;18.30;99.90
16635;DHT22;8431;52.458;9.998;2023-07-31T15:22:49;18.40;99.90
16635;DHT22;8431;52.458;9.998;2023-07-31T15:25:16;18.50;99.90
16635;DHT22;8431;52.458;9.998;2023-07-31T15:27:43;18.60;99.90
16635;DHT22;8431;52.458;9.998;2023-07-31T15:30:13;18.60;99.90
16635;DHT22;8431;52.458;9.998;2023-07-31T15:32:40;18.80;99.90
16635;DHT22;8431;52.458;9.998;2023-07-31T15:35:07;18.80;99.90
16635;DHT22;8431;52.458;9.998;2023-07-31T15:37:34;18.90;99.90
16635;DHT22;8431;52.458;9.998;2023-07-31T15:40:01;18.80;99.90
16635;DHT22;8431;52.458;9.998;2023-07-31T15:42:28;18.80;99.90
16635;DHT22;8431;52.458;9.998;2023-07-31T15:44:55;18.80;99.90
16635;DHT22;8431;52.458;9.998;2023-07-31T15:47:24;18.80;99.90
16635;DHT22;8431;52.458;9.998;2023-07-31T15:49:51;18.70;99.90
16635;DHT22;8431;52.458;9.998;2023-07-31T15:52:18;18.70;99.90
16635;DHT22;8431;52.458;9.998;2023-07-31T15:54:45;18.80;99.90
16635;DHT22;8431;52.458;9.998;2023-07-31T15:57:12;18.60;99.90
16635;DHT22;8431;52.458;9.998;2023-07-31T15:59:38;18.60;99.90
16635;DHT22;8431;52.458;9.998;2023-07-31T16:02:07;18.60;99.90
16635;DHT22;8431;52.458;9.998;2023-07-31T16:04:37;18.60;99.90
16635;DHT22;8431;52.458;9.998;2023-07-31T16:07:04;18.60;99.90
16635;DHT22;8431;52.458;9.998;2023-07-31T16:09:31;18.70;99.90